createdAt,value
2022-08-19T00:01:37.932Z,6.25
2022-08-19T00:04:10.345Z,6.65
2022-08-19T00:06:38.024Z,6.43
2022-08-19T00:09:06.767Z,6.85
2022-08-19T00:11:33.590Z,7.45
2022-08-19T00:14:00.201Z,7.05
2022-08-19T00:16:27.102Z,6.32
2022-08-19T00:18:54.923Z,7.15
2022-08-19T00:21:21.829Z,6.07
2022-08-19T00:23:48.631Z,6.75
2022-08-19T00:26:15.275Z,6.72
2022-08-19T00:28:42.163Z,6.72
2022-08-19T00:31:09.429Z,6.55
2022-08-19T00:33:36.703Z,7.35
2022-08-19T00:36:07.304Z,7.10
2022-08-19T00:38:39.285Z,6.47
2022-08-19T00:41:07.026Z,6.70
2022-08-19T00:43:33.866Z,5.85
2022-08-19T00:46:00.607Z,6.97
2022-08-19T00:48:27.507Z,6.03
2022-08-19T00:50:55.273Z,5.93
2022-08-19T00:53:24.345Z,6.25
2022-08-19T00:55:54.491Z,6.40
2022-08-19T00:58:24.302Z,6.95
2022-08-19T01:00:51.328Z,6.05
2022-08-19T01:03:20.668Z,6.22
2022-08-19T01:05:48.421Z,7.03
2022-08-19T01:08:16.820Z,5.95
2022-08-19T01:10:47.282Z,6.47
2022-08-19T01:13:16.122Z,6.43
2022-08-19T01:15:56.535Z,6.43
2022-08-19T01:18:23.980Z,6.10
2022-08-19T01:20:52.326Z,6.40
2022-08-19T01:23:19.504Z,6.10
2022-08-19T01:25:50.869Z,5.78
2022-08-19T01:28:34.068Z,6.25
2022-08-19T01:31:08.155Z,6.40
2022-08-19T01:33:35.327Z,7.13
2022-08-19T01:36:13.998Z,5.95
2022-08-19T01:38:44.462Z,6.38
2022-08-19T01:41:14.406Z,6.70
2022-08-19T01:44:03.155Z,5.65
2022-08-19T01:46:28.282Z,6.10
2022-08-19T01:48:55.072Z,5.63
2022-08-19T01:51:21.817Z,6.63
2022-08-19T01:53:50.084Z,5.72
2022-08-19T01:56:17.140Z,6.03
2022-08-19T01:58:48.762Z,6.00
2022-08-19T02:01:15.439Z,6.40
2022-08-19T02:03:42.492Z,6.28
2022-08-19T02:06:09.500Z,6.72
2022-08-19T02:08:39.053Z,6.68
2022-08-19T02:11:07.179Z,6.25
2022-08-19T02:13:35.242Z,6.95
2022-08-19T02:16:04.292Z,7.03
2022-08-19T02:18:31.441Z,6.90
2022-08-19T02:20:58.160Z,6.55
2022-08-19T02:23:24.908Z,6.38
2022-08-19T02:25:52.527Z,6.43
2022-08-19T02:28:19.277Z,6.90
2022-08-19T02:30:47.219Z,7.40
2022-08-19T02:33:13.881Z,7.68
2022-08-19T02:35:45.142Z,8.02
2022-08-19T02:38:27.005Z,6.93
2022-08-19T02:40:59.798Z,6.90
2022-08-19T02:43:28.617Z,7.72
2022-08-19T02:45:55.542Z,7.10
2022-08-19T02:48:24.302Z,6.90
2022-08-19T02:50:56.308Z,7.72
2022-08-19T02:53:25.086Z,7.30
2022-08-19T02:55:52.250Z,7.70
2022-08-19T02:58:19.183Z,7.80
2022-08-19T03:00:50.606Z,7.85
2022-08-19T03:03:20.696Z,9.07
2022-08-19T03:05:56.057Z,8.80
2022-08-19T03:08:25.335Z,7.90
2022-08-19T03:10:53.835Z,9.30
2022-08-19T03:13:20.759Z,9.65
2022-08-19T03:15:48.567Z,10.13
2022-08-19T03:18:15.927Z,9.27
2022-08-19T03:20:55.420Z,13.75
2022-08-19T03:23:22.662Z,8.93
2022-08-19T03:26:03.034Z,9.00
2022-08-19T03:28:37.800Z,9.57
2022-08-19T03:31:42.147Z,9.68
2022-08-19T03:33:55.400Z,10.32
2022-08-19T03:36:26.780Z,10.63
2022-08-19T03:38:59.876Z,9.48
2022-08-19T03:41:34.377Z,10.00
2022-08-19T03:44:17.994Z,10.02
2022-08-19T03:46:47.054Z,10.43
2022-08-19T03:49:14.187Z,10.90
2022-08-19T03:51:42.165Z,10.40
2022-08-19T03:54:10.827Z,10.27
2022-08-19T03:56:39.435Z,10.45
2022-08-19T03:59:08.723Z,10.57
2022-08-19T04:01:35.950Z,10.40
2022-08-19T04:04:03.477Z,10.13
2022-08-19T04:06:36.042Z,11.43
2022-08-19T04:09:08.496Z,10.45
2022-08-19T04:11:44.631Z,11.18
2022-08-19T04:14:18.283Z,12.00
2022-08-19T04:16:45.578Z,10.77
2022-08-19T04:19:13.271Z,11.00
2022-08-19T04:21:40.337Z,10.90
2022-08-19T04:24:07.303Z,11.60
2022-08-19T04:26:36.936Z,11.68
2022-08-19T04:29:12.684Z,11.75
2022-08-19T04:31:41.057Z,11.40
2022-08-19T04:34:11.939Z,10.18
2022-08-19T04:36:42.300Z,11.52
2022-08-19T04:39:17.004Z,10.82
2022-08-19T04:42:03.249Z,11.80
2022-08-19T04:44:35.586Z,10.10
2022-08-19T04:47:10.917Z,10.93
2022-08-19T04:49:38.383Z,11.48
2022-08-19T04:52:05.014Z,10.85
2022-08-19T04:54:37.541Z,12.27
2022-08-19T04:57:07.820Z,11.43
2022-08-19T04:59:35.603Z,12.10
2022-08-19T05:02:02.340Z,10.70
2022-08-19T05:04:31.963Z,10.93
2022-08-19T05:07:00.773Z,11.70
2022-08-19T05:09:28.332Z,11.45
2022-08-19T05:12:08.853Z,10.43
2022-08-19T05:14:37.539Z,12.50
2022-08-19T05:17:26.126Z,11.70
2022-08-19T05:20:09.240Z,12.13
2022-08-19T05:22:36.557Z,11.55
2022-08-19T05:25:13.020Z,11.55
2022-08-19T05:27:41.087Z,11.90
2022-08-19T05:30:08.336Z,11.77
2022-08-19T05:32:36.165Z,12.43
2022-08-19T05:35:03.072Z,12.20
2022-08-19T05:37:29.875Z,12.68
2022-08-19T05:39:56.683Z,13.63
2022-08-19T05:42:24.242Z,15.55
2022-08-19T05:44:51.958Z,13.65
2022-08-19T05:47:20.867Z,15.88
2022-08-19T05:49:48.173Z,18.23
2022-08-19T05:52:16.953Z,16.88
2022-08-19T05:54:50.961Z,18.33
2022-08-19T05:57:17.958Z,18.48
2022-08-19T05:59:57.610Z,18.15
2022-08-19T06:02:29.198Z,16.70
2022-08-19T06:04:55.838Z,19.02
2022-08-19T06:07:22.568Z,18.92
2022-08-19T06:10:00.468Z,18.25
2022-08-19T06:12:35.173Z,18.70
2022-08-19T06:15:05.899Z,18.42
2022-08-19T06:17:32.769Z,20.33
2022-08-19T06:20:00.140Z,20.13
2022-08-19T06:22:27.881Z,20.95
2022-08-19T06:24:55.285Z,20.83
2022-08-19T06:27:22.253Z,21.10
2022-08-19T06:29:49.045Z,20.13
2022-08-19T06:32:17.339Z,18.15
2022-08-19T06:34:44.000Z,19.50
2022-08-19T06:37:12.469Z,19.98
2022-08-19T06:39:41.621Z,19.33
2022-08-19T06:42:11.161Z,18.80
2022-08-19T06:44:42.781Z,17.45
2022-08-19T06:47:14.937Z,17.85
2022-08-19T06:49:51.080Z,17.08
2022-08-19T06:52:17.773Z,16.40
2022-08-19T06:54:55.353Z,15.63
2022-08-19T06:57:24.390Z,16.80
2022-08-19T06:59:51.253Z,16.85
2022-08-19T07:04:52.865Z,14.45
2022-08-19T07:07:21.846Z,13.57
2022-08-19T07:09:57.761Z,14.30
2022-08-19T07:12:33.944Z,15.38
2022-08-19T07:15:04.548Z,13.05
2022-08-19T07:17:31.320Z,14.25
2022-08-19T07:19:58.114Z,14.43
2022-08-19T07:22:33.647Z,14.48
2022-08-19T07:25:00.721Z,14.02
2022-08-19T07:27:27.385Z,13.30
2022-08-19T07:29:55.730Z,12.95
2022-08-19T07:32:23.279Z,12.57
2022-08-19T07:34:49.935Z,12.30
2022-08-19T07:37:16.985Z,13.65
2022-08-19T07:39:43.689Z,12.57
2022-08-19T07:42:13.252Z,13.23
2022-08-19T07:47:47.785Z,13.38
2022-08-19T07:49:58.590Z,11.30
2022-08-19T07:52:25.162Z,13.32
2022-08-19T07:54:51.898Z,11.25
2022-08-19T07:57:19.982Z,11.90
2022-08-19T07:59:46.682Z,10.95
2022-08-19T08:02:13.288Z,10.20
2022-08-19T08:04:58.575Z,10.80
2022-08-19T08:07:46.314Z,11.18
2022-08-19T08:11:03.818Z,10.90
2022-08-19T08:13:36.291Z,12.00
2022-08-19T08:16:06.234Z,11.85
2022-08-19T08:18:42.478Z,11.38
2022-08-19T08:21:09.720Z,12.02
2022-08-19T08:23:36.866Z,12.93
2022-08-19T08:26:06.504Z,13.48
2022-08-19T08:28:33.135Z,13.63
2022-08-19T08:31:00.182Z,13.98
2022-08-19T08:33:34.185Z,16.55
2022-08-19T08:36:04.297Z,13.57
2022-08-19T08:38:38.365Z,14.55
2022-08-19T08:41:29.220Z,14.63
2022-08-19T08:43:58.092Z,13.73
2022-08-19T08:46:47.833Z,13.65
2022-08-19T08:49:46.614Z,13.50
2022-08-19T08:52:37.209Z,13.20
2022-08-19T08:55:12.302Z,14.32
2022-08-19T08:57:48.200Z,12.88
2022-08-19T09:00:19.315Z,15.90
2022-08-19T09:02:50.412Z,13.50
2022-08-19T09:05:22.612Z,13.90
2022-08-19T09:08:13.804Z,13.75
2022-08-19T09:10:55.571Z,13.95
2022-08-19T09:13:37.550Z,13.35
2022-08-19T09:16:15.050Z,13.77
2022-08-19T09:18:48.162Z,13.50
2022-08-19T09:21:16.253Z,14.27
2022-08-19T09:23:44.652Z,13.23
2022-08-19T09:26:16.842Z,12.45
2022-08-19T09:28:48.896Z,14.02
2022-08-19T09:31:22.707Z,12.73
2022-08-19T09:36:31.066Z,12.25
2022-08-19T09:39:02.074Z,13.00
2022-08-19T09:41:29.758Z,11.80
2022-08-19T09:43:57.771Z,11.75
2022-08-19T09:46:27.193Z,12.50
2022-08-19T09:48:54.616Z,12.48
2022-08-19T09:51:24.026Z,12.15
2022-08-19T09:53:52.090Z,11.63
2022-08-19T09:56:20.738Z,10.38
2022-08-19T09:58:47.543Z,10.75
2022-08-19T10:01:23.961Z,11.45
2022-08-19T10:03:54.210Z,10.18
2022-08-19T10:06:45.574Z,9.80
2022-08-19T10:09:11.766Z,10.32
2022-08-19T10:11:46.905Z,9.93
2022-08-19T10:14:23.244Z,9.70
2022-08-19T10:16:50.372Z,10.23
2022-08-19T10:19:25.408Z,10.38
2022-08-19T10:21:54.227Z,10.45
2022-08-19T10:24:21.661Z,10.23
2022-08-19T10:26:55.957Z,10.90
2022-08-19T10:29:33.011Z,10.10
2022-08-19T10:32:02.648Z,10.18
2022-08-19T10:34:30.817Z,10.23
2022-08-19T10:37:00.902Z,10.00
2022-08-19T10:39:30.886Z,10.63
2022-08-19T10:41:58.547Z,10.57
2022-08-19T10:44:32.001Z,10.88
2022-08-19T10:46:59.958Z,10.90
2022-08-19T10:49:26.665Z,10.70
2022-08-19T10:52:20.727Z,10.82
2022-08-19T10:55:08.253Z,10.98
2022-08-19T10:57:59.351Z,11.13
2022-08-19T11:00:24.237Z,10.50
2022-08-19T11:02:51.399Z,11.27
2022-08-19T11:05:19.143Z,10.77
2022-08-19T11:07:46.455Z,10.25
2022-08-19T11:10:18.304Z,9.85
2022-08-19T11:12:47.530Z,9.98
2022-08-19T11:15:14.170Z,9.65
2022-08-19T11:17:44.798Z,9.45
2022-08-19T11:20:15.904Z,9.77
2022-08-19T11:22:43.160Z,9.20
2022-08-19T11:25:11.377Z,9.32
2022-08-19T11:27:45.597Z,8.90
2022-08-19T11:30:14.044Z,9.20
2022-08-19T11:32:45.910Z,10.13
2022-08-19T11:35:15.336Z,9.60
2022-08-19T11:37:42.027Z,10.13
2022-08-19T11:40:09.432Z,9.63
2022-08-19T11:42:54.807Z,9.80
2022-08-19T11:45:22.082Z,10.43
2022-08-19T11:47:49.153Z,10.70
2022-08-19T11:50:17.249Z,9.77
2022-08-19T11:52:45.965Z,10.43
2022-08-19T11:55:14.147Z,9.90
2022-08-19T11:57:42.121Z,10.68
2022-08-19T12:00:15.278Z,10.00
2022-08-19T12:02:41.978Z,11.38
2022-08-19T12:05:12.198Z,10.15
2022-08-19T12:07:39.533Z,10.15
2022-08-19T12:10:06.666Z,10.82
2022-08-19T12:12:35.405Z,9.98
2022-08-19T12:15:02.237Z,9.55
2022-08-19T12:17:29.648Z,10.45
2022-08-19T12:19:56.409Z,9.82
2022-08-19T12:22:23.627Z,11.15
2022-08-19T12:24:51.855Z,10.77
2022-08-19T12:27:32.340Z,11.15
2022-08-19T12:30:07.569Z,10.88
2022-08-19T12:32:34.616Z,11.82
2022-08-19T12:35:02.155Z,12.13
2022-08-19T12:37:28.851Z,11.23
2022-08-19T12:39:55.598Z,10.52
2022-08-19T12:42:23.624Z,10.75
2022-08-19T12:44:50.395Z,11.68
2022-08-19T12:47:18.061Z,10.80
2022-08-19T12:49:54.514Z,11.07
2022-08-19T12:52:23.978Z,11.07
2022-08-19T12:54:53.893Z,10.65
2022-08-19T12:57:31.848Z,11.95
2022-08-19T13:00:01.718Z,10.98
2022-08-19T13:02:33.089Z,11.30
2022-08-19T13:05:07.809Z,11.02
2022-08-19T13:07:34.401Z,11.25
2022-08-19T13:10:01.107Z,11.40
2022-08-19T13:12:27.752Z,12.50
2022-08-19T13:14:54.790Z,10.85
2022-08-19T13:17:21.636Z,11.60
2022-08-19T13:19:48.407Z,11.20
2022-08-19T13:22:15.260Z,11.15
2022-08-19T13:24:46.824Z,11.48
2022-08-19T13:27:13.878Z,10.70
2022-08-19T13:30:02.710Z,11.20
2022-08-19T13:32:53.913Z,11.70
2022-08-19T13:35:20.595Z,11.20
2022-08-19T13:37:47.197Z,10.68
2022-08-19T13:40:19.504Z,11.20
2022-08-19T13:47:06.642Z,9.98
2022-08-19T13:49:34.366Z,12.13
2022-08-19T13:52:03.779Z,11.32
2022-08-19T13:54:30.441Z,10.50
2022-08-19T13:56:57.217Z,11.00
2022-08-19T13:59:23.893Z,10.98
2022-08-19T14:01:50.967Z,11.40
2022-08-19T14:04:17.599Z,11.40
2022-08-19T14:06:44.244Z,11.30
2022-08-19T14:09:10.937Z,10.90
2022-08-19T14:11:38.328Z,11.20
2022-08-19T14:14:07.366Z,11.20
2022-08-19T14:16:34.526Z,10.32
2022-08-19T14:19:01.146Z,11.07
2022-08-19T14:21:27.817Z,11.27
2022-08-19T14:23:54.925Z,10.98
2022-08-19T14:26:22.470Z,10.05
2022-08-19T14:28:49.183Z,10.73
2022-08-19T14:31:19.861Z,10.07
2022-08-19T14:33:48.146Z,10.00
2022-08-19T14:36:14.953Z,9.93
2022-08-19T14:38:42.996Z,10.45
2022-08-19T14:41:20.327Z,9.68
2022-08-19T14:43:49.681Z,10.75
2022-08-19T14:46:20.456Z,10.35
2022-08-19T14:48:47.526Z,10.10
2022-08-19T14:51:20.057Z,9.88
2022-08-19T14:53:49.326Z,10.52
2022-08-19T14:56:19.843Z,10.52
2022-08-19T14:58:46.912Z,9.40
2022-08-19T15:01:14.525Z,10.40
2022-08-19T15:03:42.140Z,8.88
2022-08-19T15:06:09.139Z,10.40
2022-08-19T15:08:42.004Z,9.90
2022-08-19T15:11:15.897Z,9.77
2022-08-19T15:13:43.616Z,9.57
2022-08-19T15:16:18.219Z,9.75
2022-08-19T15:18:46.042Z,10.18
2022-08-19T15:21:14.555Z,10.57
2022-08-19T15:23:41.848Z,10.20
2022-08-19T15:26:14.421Z,10.60
2022-08-19T15:28:43.362Z,10.30
2022-08-19T15:31:18.946Z,10.15
2022-08-19T15:33:58.517Z,10.20
2022-08-19T15:36:26.266Z,9.63
2022-08-19T15:38:53.400Z,10.15
2022-08-19T15:41:23.916Z,9.68
2022-08-19T15:43:54.101Z,9.73
2022-08-19T15:46:23.749Z,10.88
2022-08-19T15:48:57.231Z,10.70
2022-08-19T15:51:30.243Z,10.45
2022-08-19T15:53:59.648Z,10.20
2022-08-19T15:56:27.486Z,10.65
2022-08-19T15:59:12.943Z,11.48
2022-08-19T16:01:58.500Z,11.23
2022-08-19T16:04:44.036Z,10.48
2022-08-19T16:07:12.696Z,10.48
2022-08-19T16:09:39.456Z,11.65
2022-08-19T16:12:06.293Z,10.10
2022-08-19T16:14:35.243Z,11.60
2022-08-19T16:17:02.000Z,11.02
2022-08-19T16:19:28.662Z,10.90
2022-08-19T16:21:56.382Z,10.75
2022-08-19T16:24:26.565Z,12.82
2022-08-19T16:26:54.567Z,11.27
2022-08-19T16:29:34.074Z,11.45
2022-08-19T16:32:07.904Z,11.57
2022-08-19T16:34:34.576Z,10.97
2022-08-19T16:37:01.591Z,11.60
2022-08-19T16:39:28.312Z,11.77
2022-08-19T16:41:54.993Z,10.98
2022-08-19T16:44:22.031Z,11.50
2022-08-19T16:46:52.607Z,10.63
2022-08-19T16:49:55.290Z,10.40
2022-08-19T16:52:14.883Z,11.30
2022-08-19T16:54:43.554Z,11.90
2022-08-19T16:57:11.973Z,11.18
2022-08-19T16:59:43.760Z,11.07
2022-08-19T17:02:17.967Z,11.25
2022-08-19T17:04:44.668Z,11.27
2022-08-19T17:07:24.500Z,10.80
2022-08-19T17:09:51.506Z,11.63
2022-08-19T17:12:18.206Z,12.02
2022-08-19T17:14:48.106Z,10.35
2022-08-19T17:17:15.367Z,11.88
2022-08-19T17:19:44.654Z,11.30
2022-08-19T17:22:13.004Z,10.10
2022-08-19T17:24:40.618Z,11.38
2022-08-19T17:27:07.488Z,11.43
2022-08-19T17:29:34.345Z,11.52
2022-08-19T17:32:01.903Z,11.40
2022-08-19T17:34:28.554Z,11.23
2022-08-19T17:36:56.951Z,10.65
2022-08-19T17:39:25.212Z,10.38
2022-08-19T17:41:51.890Z,11.40
2022-08-19T17:44:18.902Z,10.88
2022-08-19T17:46:46.641Z,11.70
2022-08-19T17:49:13.437Z,11.35
2022-08-19T17:51:46.234Z,10.73
2022-08-19T17:54:16.252Z,11.15
2022-08-19T17:56:43.703Z,10.68
2022-08-19T17:59:13.783Z,10.73
2022-08-19T18:01:52.674Z,11.98
2022-08-19T18:04:22.965Z,11.65
2022-08-19T18:06:53.261Z,12.18
2022-08-19T18:09:38.728Z,11.23
2022-08-19T18:12:11.864Z,10.90
2022-08-19T18:14:39.402Z,10.52
2022-08-19T18:17:11.301Z,11.27
2022-08-19T18:19:41.174Z,11.88
2022-08-19T18:22:13.688Z,11.45
2022-08-19T18:24:46.007Z,11.05
2022-08-19T18:27:12.805Z,11.45
2022-08-19T18:29:40.236Z,11.85
2022-08-19T18:32:13.557Z,11.52
2022-08-19T18:34:41.497Z,11.20
2022-08-19T18:37:08.297Z,12.25
2022-08-19T18:40:44.746Z,9.95
2022-08-19T18:43:11.588Z,12.60
2022-08-19T18:46:00.122Z,13.60
2022-08-19T18:48:45.949Z,13.20
2022-08-19T18:51:12.876Z,12.48
2022-08-19T18:53:41.337Z,12.95
2022-08-19T18:56:11.932Z,12.15
2022-08-19T18:58:39.136Z,10.88
2022-08-19T19:01:11.430Z,11.68
2022-08-19T19:03:45.505Z,10.80
2022-08-19T19:06:19.549Z,11.50
2022-08-19T19:08:47.434Z,11.57
2022-08-19T19:11:17.680Z,11.13
2022-08-19T19:13:47.093Z,11.23
2022-08-19T19:16:13.775Z,10.95
2022-08-19T19:18:40.383Z,11.98
2022-08-19T19:21:08.564Z,11.45
2022-08-19T19:23:40.620Z,11.30
2022-08-19T19:26:10.469Z,11.48
2022-08-19T19:28:43.478Z,12.13
2022-08-19T19:31:14.241Z,11.18
2022-08-19T19:33:41.911Z,12.65
2022-08-19T19:36:08.793Z,11.65
2022-08-19T19:38:36.005Z,12.48
2022-08-19T19:41:02.974Z,12.00
2022-08-19T19:43:29.823Z,12.10
2022-08-19T19:46:05.853Z,11.27
2022-08-19T19:48:35.468Z,11.75
2022-08-19T19:51:03.633Z,12.25
2022-08-19T19:53:32.787Z,12.18
2022-08-19T19:55:59.374Z,12.32
2022-08-19T19:58:28.772Z,11.88
2022-08-19T20:00:57.620Z,11.13
2022-08-19T20:03:27.567Z,12.52
2022-08-19T20:06:01.480Z,11.88
2022-08-19T20:08:47.219Z,11.80
2022-08-19T20:11:31.203Z,11.77
2022-08-19T20:16:32.188Z,11.02
2022-08-19T20:19:00.272Z,12.23
2022-08-19T20:21:32.067Z,11.82
2022-08-19T20:24:09.127Z,12.23
2022-08-19T20:26:37.016Z,10.80
2022-08-19T20:29:13.531Z,12.02
2022-08-19T20:31:59.025Z,12.60
2022-08-19T20:34:26.398Z,12.02
2022-08-19T20:36:53.111Z,10.82
2022-08-19T20:39:19.797Z,11.57
2022-08-19T20:41:46.616Z,11.15
2022-08-19T20:44:18.543Z,10.60
2022-08-19T20:46:54.495Z,10.80
2022-08-19T20:49:22.764Z,12.32
2022-08-19T20:51:54.671Z,11.85
2022-08-19T20:54:24.394Z,11.20
2022-08-19T20:56:54.041Z,11.25
2022-08-19T20:59:23.891Z,10.52
2022-08-19T21:01:53.385Z,11.98
2022-08-19T21:04:21.446Z,11.93
2022-08-19T21:06:49.649Z,11.57
2022-08-19T21:09:17.178Z,11.70
2022-08-19T21:11:44.135Z,11.30
2022-08-19T21:14:10.811Z,11.98
2022-08-19T21:16:38.898Z,11.65
2022-08-19T21:19:05.751Z,11.63
2022-08-19T21:21:35.467Z,11.45
2022-08-19T21:24:02.257Z,11.52
2022-08-19T21:26:29.166Z,12.57
2022-08-19T21:28:55.862Z,11.30
2022-08-19T21:31:22.833Z,11.05
2022-08-19T21:33:49.469Z,12.13
2022-08-19T21:36:18.440Z,11.70
2022-08-19T21:38:47.294Z,12.85
2022-08-19T21:41:13.890Z,11.05
2022-08-19T21:43:40.553Z,12.00
2022-08-19T21:46:07.546Z,11.07
2022-08-19T21:48:35.118Z,11.82
2022-08-19T21:51:01.921Z,12.18
2022-08-19T21:53:34.202Z,12.07
2022-08-19T21:56:04.629Z,11.65
2022-08-19T21:58:31.232Z,12.13
2022-08-19T22:01:05.837Z,13.13
2022-08-19T22:03:37.549Z,12.30
2022-08-19T22:06:04.719Z,12.07
2022-08-19T22:08:31.606Z,11.32
2022-08-19T22:11:00.449Z,10.88
2022-08-19T22:13:30.126Z,12.13
2022-08-19T22:15:57.371Z,10.68
2022-08-19T22:18:24.301Z,12.02
2022-08-19T22:20:54.693Z,11.18
2022-08-19T22:23:21.308Z,11.90
2022-08-19T22:25:51.049Z,11.07
2022-08-19T22:28:28.019Z,11.50
2022-08-19T22:30:56.395Z,11.30
2022-08-19T22:33:29.317Z,10.13
2022-08-19T22:35:56.401Z,11.10
2022-08-19T22:38:24.830Z,11.55
2022-08-19T22:40:53.550Z,10.52
2022-08-19T22:43:27.498Z,10.68
2022-08-19T22:45:54.943Z,12.15
2022-08-19T22:48:24.674Z,10.60
2022-08-19T22:51:11.069Z,11.57
2022-08-19T22:53:40.488Z,11.18
2022-08-19T22:56:13.055Z,11.85
2022-08-19T22:58:42.376Z,10.55
2022-08-19T23:01:11.614Z,11.13
2022-08-19T23:03:56.323Z,9.93
2022-08-19T23:06:23.157Z,10.95
2022-08-19T23:08:57.843Z,10.48
2022-08-19T23:11:24.816Z,9.77
2022-08-19T23:13:51.734Z,9.88
2022-08-19T23:16:18.345Z,10.68
2022-08-19T23:18:45.473Z,10.15
2022-08-19T23:21:12.206Z,10.63
2022-08-19T23:23:39.225Z,10.60
2022-08-19T23:26:06.108Z,9.85
2022-08-19T23:28:57.095Z,11.10
2022-08-19T23:31:26.189Z,10.10
2022-08-19T23:33:53.455Z,9.82
2022-08-19T23:36:20.671Z,10.30
2022-08-19T23:38:52.214Z,11.55
2022-08-19T23:41:21.359Z,10.30
2022-08-19T23:43:48.246Z,10.15
2022-08-19T23:46:27.675Z,10.32
2022-08-19T23:48:56.029Z,9.40
2022-08-19T23:51:22.689Z,10.10
2022-08-19T23:53:49.334Z,9.73
2022-08-19T23:56:16.690Z,9.88
2022-08-19T23:58:43.314Z,10.07
